Time;durP1;ratioP1;P1;durP2;ratioP2;P2;SDS_P1;SDS_P2;PMS_P1;PMS_P2;Temp;Humidity;BMP_temperature;BMP_pressure;BME280_temperature;BME280_humidity;BME280_pressure;Samples;Min_cycle;Max_cycle;Signal;HPM_P1;HPM_P2
2021/12/04 00:00:25;;;;;;;3.20;1.10;;;10.70;99.90;;;;;;5012019;28;20021;-75
2021/12/04 00:02:51;;;;;;;1.40;1.00;;;10.70;99.90;;;;;;5030181;28;20537;-75
2021/12/04 00:05:19;;;;;;;2.78;0.85;;;10.70;99.90;;;;;;5029414;28;20040;-75
2021/12/04 00:07:45;;;;;;;2.05;0.80;;;10.70;99.90;;;;;;5031061;28;20021;-75
2021/12/04 00:10:27;;;;;;;0.88;0.80;;;10.70;99.90;;;;;;5029210;28;20557;-75
2021/12/04 00:12:52;;;;;;;1.23;0.95;;;10.80;99.90;;;;;;5009886;28;20205;-75
2021/12/04 00:15:18;;;;;;;2.25;0.90;;;10.90;99.90;;;;;;5029232;28;20503;-75
2021/12/04 00:17:44;;;;;;;2.25;0.98;;;10.80;99.90;;;;;;5029406;28;20529;-75
2021/12/04 00:20:10;;;;;;;2.67;1.00;;;10.80;99.90;;;;;;5011980;28;20026;-75
2021/12/04 00:22:36;;;;;;;2.67;0.90;;;10.80;99.90;;;;;;5012845;28;20029;-75
2021/12/04 00:25:07;;;;;;;1.80;0.88;;;10.80;99.90;;;;;;5029108;28;20048;-75
2021/12/04 00:27:33;;;;;;;1.05;1.00;;;10.80;99.90;;;;;;5029325;28;20057;-75
2021/12/04 00:29:59;;;;;;;2.20;0.98;;;10.80;99.90;;;;;;5029212;28;20064;-75
2021/12/04 00:32:30;;;;;;;2.05;1.50;;;10.90;99.90;;;;;;5011100;28;20159;-75
2021/12/04 00:49:12;;;;;;;2.08;0.90;;;11.00;99.90;;;;;;5006388;28;20538;-75
2021/12/04 00:51:18;;;;;;;0.93;0.68;;;11.10;99.90;;;;;;5006486;28;20044;-75
2021/12/04 00:53:44;;;;;;;1.35;0.98;;;11.10;99.90;;;;;;5006454;28;20034;-75
2021/12/04 00:56:10;;;;;;;2.58;0.90;;;11.10;99.90;;;;;;5006786;28;20592;-75
2021/12/04 00:58:36;;;;;;;1.75;1.30;;;11.00;99.90;;;;;;5008034;28;20022;-75
2021/12/04 01:01:03;;;;;;;1.20;1.10;;;11.00;99.90;;;;;;5006255;28;20276;-76
2021/12/04 01:03:29;;;;;;;1.20;1.00;;;11.00;99.90;;;;;;5006298;28;20029;-75
2021/12/04 01:05:54;;;;;;;0.85;0.70;;;11.00;99.90;;;;;;5006072;28;20026;-75
2021/12/04 01:08:20;;;;;;;1.23;0.75;;;11.00;99.90;;;;;;5005841;28;20054;-75
2021/12/04 01:10:46;;;;;;;0.68;0.68;;;11.00;99.90;;;;;;5007950;28;20046;-76
2021/12/04 01:13:12;;;;;;;0.50;0.50;;;11.20;99.90;;;;;;5007281;28;20517;-75
2021/12/04 01:15:43;;;;;;;0.75;0.70;;;11.20;99.90;;;;;;5028305;28;20017;-75
2021/12/04 01:18:10;;;;;;;0.85;0.65;;;11.20;99.90;;;;;;5028033;28;20018;-75
2021/12/04 01:20:35;;;;;;;1.40;0.70;;;11.20;99.90;;;;;;5028003;28;20636;-76
2021/12/04 01:23:01;;;;;;;0.73;0.68;;;11.20;99.90;;;;;;5029093;28;20108;-75
2021/12/04 01:25:27;;;;;;;1.70;1.23;;;11.20;99.90;;;;;;5029601;28;20494;-75
2021/12/04 01:27:53;;;;;;;0.60;0.57;;;11.20;99.90;;;;;;5028501;28;20033;-75
2021/12/04 01:30:19;;;;;;;0.70;0.70;;;11.20;99.90;;;;;;5027879;28;20028;-75
2021/12/04 01:32:45;;;;;;;0.50;0.50;;;11.20;99.90;;;;;;5028417;28;20049;-75
2021/12/04 01:35:11;;;;;;;0.98;0.65;;;11.20;99.90;;;;;;5028424;28;20041;-75
2021/12/04 01:37:36;;;;;;;0.70;0.60;;;11.20;99.90;;;;;;5029338;28;20022;-76
2021/12/04 01:40:04;;;;;;;1.17;0.70;;;11.20;99.90;;;;;;5028157;28;20494;-75
2021/12/04 01:42:32;;;;;;;0.82;0.80;;;11.20;99.90;;;;;;5027693;28;20037;-75
2021/12/04 01:44:58;;;;;;;1.90;1.00;;;11.10;99.90;;;;;;5027898;28;20095;-76
2021/12/04 01:47:23;;;;;;;1.00;0.70;;;11.10;99.90;;;;;;5027757;28;20029;-75
2021/12/04 01:49:51;;;;;;;0.90;0.70;;;11.10;99.90;;;;;;5030313;28;20096;-75
2021/12/04 01:52:18;;;;;;;0.70;0.63;;;11.00;99.90;;;;;;5014320;28;20417;-75
2021/12/04 01:54:44;;;;;;;0.88;0.88;;;11.10;99.90;;;;;;5031711;28;20036;-75
2021/12/04 01:57:13;;;;;;;0.70;0.70;;;11.00;99.90;;;;;;5031958;28;20109;-75
2021/12/04 01:59:39;;;;;;;2.20;0.50;;;11.10;99.90;;;;;;5031825;28;20092;-76
2021/12/04 02:02:04;;;;;;;0.75;0.70;;;11.10;99.90;;;;;;5032859;28;20100;-75
2021/12/04 02:04:30;;;;;;;0.88;0.80;;;11.10;99.90;;;;;;5033089;28;20491;-76
2021/12/04 02:06:56;;;;;;;1.67;0.80;;;11.10;99.90;;;;;;5031718;28;20423;-75
2021/12/04 02:09:22;;;;;;;0.75;0.60;;;11.10;99.90;;;;;;5013769;28;20511;-75
2021/12/04 02:11:48;;;;;;;1.35;1.02;;;11.00;99.90;;;;;;5031701;28;20116;-75
2021/12/04 02:14:14;;;;;;;1.30;0.70;;;11.00;99.90;;;;;;5031762;28;20057;-75
2021/12/04 02:16:40;;;;;;;5.88;1.02;;;11.00;99.90;;;;;;5033263;28;20512;-75
2021/12/04 02:19:05;;;;;;;0.98;0.77;;;10.90;99.90;;;;;;5031377;28;20048;-75
2021/12/04 02:21:32;;;;;;;0.90;0.85;;;10.90;99.90;;;;;;5031627;28;20020;-75
2021/12/04 02:23:57;;;;;;;0.47;0.47;;;10.90;99.90;;;;;;5013477;28;20025;-75
2021/12/04 02:26:23;;;;;;;1.60;0.80;;;10.90;99.90;;;;;;5031185;28;20453;-75
2021/12/04 02:28:49;;;;;;;0.82;0.57;;;10.90;99.90;;;;;;5032983;28;20566;-75
2021/12/04 02:31:15;;;;;;;1.27;0.70;;;10.90;99.90;;;;;;5031443;28;20034;-75
2021/12/04 02:33:41;;;;;;;0.75;0.40;;;10.80;99.90;;;;;;5031287;28;20021;-75
2021/12/04 02:36:07;;;;;;;0.60;0.50;;;10.80;99.90;;;;;;5031042;28;20391;-75
2021/12/04 02:38:34;;;;;;;1.45;0.70;;;10.70;99.90;;;;;;5013234;28;20548;-75
2021/12/04 02:41:00;;;;;;;0.85;0.60;;;10.60;99.90;;;;;;5032319;28;20025;-76
2021/12/04 02:43:30;;;;;;;1.55;0.57;;;10.70;99.90;;;;;;5026677;28;20046;-75
2021/12/04 02:45:56;;;;;;;0.88;0.57;;;10.70;99.90;;;;;;5010045;28;20505;-75
2021/12/04 02:48:22;;;;;;;0.75;0.75;;;10.70;99.90;;;;;;5009901;28;20112;-74
2021/12/04 02:50:48;;;;;;;1.88;0.60;;;10.70;99.90;;;;;;5008923;28;20065;-75
2021/12/04 02:53:15;;;;;;;0.95;0.40;;;10.60;99.90;;;;;;5008745;28;20036;-75
2021/12/04 02:55:41;;;;;;;0.50;0.50;;;10.50;99.90;;;;;;5011606;28;20037;-75
2021/12/04 02:58:07;;;;;;;0.73;0.60;;;10.50;99.90;;;;;;5010003;28;20095;-75
2021/12/04 03:00:34;;;;;;;0.93;0.65;;;10.50;99.90;;;;;;5008234;28;20109;-75
2021/12/04 03:03:00;;;;;;;1.55;0.57;;;10.50;99.90;;;;;;5010087;28;20121;-75
2021/12/04 03:05:27;;;;;;;0.88;0.68;;;10.40;99.90;;;;;;5008612;28;20557;-75
2021/12/04 03:07:58;;;;;;;0.80;0.80;;;10.30;99.90;;;;;;5011515;28;20072;-75
2021/12/04 03:10:24;;;;;;;1.15;0.60;;;10.30;99.90;;;;;;5010244;28;20029;-75
2021/12/04 03:12:50;;;;;;;1.05;0.60;;;10.30;99.90;;;;;;5009404;28;20038;-75
2021/12/04 03:15:17;;;;;;;0.73;0.73;;;10.40;99.90;;;;;;5009482;28;20532;-75
2021/12/04 03:17:42;;;;;;;1.73;0.70;;;10.40;99.90;;;;;;5009652;28;20030;-75
2021/12/04 03:20:10;;;;;;;0.45;0.45;;;10.50;99.90;;;;;;5008651;28;20030;-75
2021/12/04 03:22:39;;;;;;;1.30;0.47;;;10.50;99.90;;;;;;5009689;28;20052;-75
2021/12/04 03:25:05;;;;;;;1.67;0.60;;;10.60;99.90;;;;;;5009311;28;20573;-75
2021/12/04 03:27:33;;;;;;;1.10;0.68;;;10.60;99.90;;;;;;5009039;28;20029;-76
2021/12/04 03:30:01;;;;;;;1.15;0.60;;;10.70;99.90;;;;;;5009851;28;20025;-75
2021/12/04 03:35:18;;;;;;;1.52;0.70;;;10.60;99.90;;;;;;5009857;28;20025;-75
2021/12/04 03:43:03;;;;;;;0.50;0.50;;;10.80;99.90;;;;;;4958277;28;1435242;-76
2021/12/04 03:45:29;;;;;;;1.40;0.75;;;10.80;99.90;;;;;;5029966;28;20112;-75
2021/12/04 03:48:04;;;;;;;0.40;0.40;;;10.70;99.90;;;;;;5030274;28;20136;-75
2021/12/04 03:50:30;;;;;;;1.13;0.60;;;10.70;99.90;;;;;;5029725;28;20013;-75
2021/12/04 03:52:56;;;;;;;0.40;0.40;;;10.70;99.90;;;;;;5031906;28;20028;-76
2021/12/04 03:55:21;;;;;;;0.57;0.57;;;10.70;99.90;;;;;;5029207;28;20029;-75
2021/12/04 03:57:47;;;;;;;0.50;0.50;;;10.60;99.90;;;;;;5029591;28;20499;-75
2021/12/04 04:00:15;;;;;;;0.40;0.40;;;10.50;99.90;;;;;;5029679;28;20510;-75
2021/12/04 04:02:41;;;;;;;0.45;0.45;;;10.40;99.90;;;;;;5011900;28;20578;-76
2021/12/04 04:05:07;;;;;;;0.50;0.43;;;10.40;99.90;;;;;;5030333;28;20104;-75
2021/12/04 04:07:33;;;;;;;0.88;0.80;;;10.30;99.90;;;;;;5031016;28;20030;-75
2021/12/04 04:09:59;;;;;;;0.60;0.60;;;10.30;99.90;;;;;;5011559;28;20083;-75
2021/12/04 04:12:24;;;;;;;0.65;0.60;;;10.30;99.90;;;;;;5028494;28;20510;-75
2021/12/04 04:14:50;;;;;;;0.50;0.50;;;10.30;99.90;;;;;;5029903;28;20506;-75
2021/12/04 04:17:16;;;;;;;0.80;0.73;;;10.30;99.90;;;;;;5029844;28;20049;-75
2021/12/04 04:19:42;;;;;;;0.60;0.60;;;10.30;99.90;;;;;;5010178;28;20060;-75
2021/12/04 04:22:07;;;;;;;0.65;0.52;;;10.20;99.90;;;;;;5027280;28;20022;-75
2021/12/04 04:24:34;;;;;;;1.38;0.55;;;10.20;99.90;;;;;;5028636;28;20566;-75
2021/12/04 04:27:00;;;;;;;0.50;0.50;;;10.10;99.90;;;;;;5029454;28;20053;-75
2021/12/04 04:29:26;;;;;;;0.60;0.57;;;10.00;99.90;;;;;;5029703;28;20026;-75
2021/12/04 04:31:54;;;;;;;0.40;0.40;;;9.90;99.90;;;;;;5013095;28;20021;-76
2021/12/04 04:34:36;;;;;;;0.85;0.50;;;9.70;99.90;;;;;;5029462;28;20030;-75
2021/12/04 04:37:17;;;;;;;2.00;0.40;;;9.60;99.90;;;;;;5029221;28;20022;-75
2021/12/04 05:15:55;;;;;;;2.42;1.30;;;9.20;99.90;;;;;;4984109;28;20573;-75
2021/12/04 05:20:38;;;;;;;2.88;1.17;;;9.30;99.90;;;;;;4986637;28;20557;-75
2021/12/04 05:23:07;;;;;;;1.20;1.00;;;9.30;99.90;;;;;;5020238;28;20037;-75
2021/12/04 05:25:35;;;;;;;2.85;0.85;;;9.30;99.90;;;;;;5029288;28;20024;-75
2021/12/04 05:28:03;;;;;;;1.08;0.90;;;9.40;99.90;;;;;;5010387;28;20041;-75
2021/12/04 05:30:28;;;;;;;0.73;0.73;;;9.40;99.90;;;;;;5028124;28;20047;-75
2021/12/04 05:32:54;;;;;;;0.75;0.70;;;9.30;99.90;;;;;;5028336;28;20530;-75
2021/12/04 05:35:21;;;;;;;0.93;0.85;;;9.30;99.90;;;;;;5027940;28;20112;-75
2021/12/04 05:37:47;;;;;;;2.10;0.90;;;9.10;99.90;;;;;;5029397;28;20056;-75
2021/12/04 05:40:14;;;;;;;0.75;0.70;;;9.20;99.90;;;;;;5027849;28;20026;-75
2021/12/04 05:42:41;;;;;;;0.82;0.68;;;9.20;99.90;;;;;;5027855;28;20033;-75
2021/12/04 05:45:14;;;;;;;0.80;0.80;;;9.20;99.90;;;;;;5010147;28;20053;-75
2021/12/04 05:47:45;;;;;;;0.80;0.60;;;9.10;99.90;;;;;;5028355;28;20033;-75
2021/12/04 05:52:52;;;;;;;1.05;0.80;;;9.10;99.90;;;;;;5029668;28;20184;-75
2021/12/04 05:55:22;;;;;;;1.02;0.80;;;9.00;99.90;;;;;;5028138;28;20128;-75
2021/12/04 05:57:47;;;;;;;1.25;0.85;;;9.00;99.90;;;;;;5010188;28;20060;-75
2021/12/04 06:00:19;;;;;;;0.70;0.70;;;9.00;99.90;;;;;;5027813;28;20432;-75
2021/12/04 06:02:45;;;;;;;0.68;0.68;;;9.10;99.90;;;;;;5028185;28;20034;-74
2021/12/04 06:05:12;;;;;;;0.80;0.80;;;9.10;99.90;;;;;;5027730;28;20517;-75
2021/12/04 06:07:38;;;;;;;0.95;0.77;;;9.10;99.90;;;;;;5029331;28;20083;-75
2021/12/04 06:10:05;;;;;;;0.70;0.70;;;9.10;99.90;;;;;;5027361;28;20143;-75
2021/12/04 06:12:31;;;;;;;1.60;0.68;;;9.10;99.90;;;;;;5027520;28;20033;-75
2021/12/04 06:14:57;;;;;;;0.88;0.80;;;9.20;99.90;;;;;;5028325;28;20100;-76
2021/12/04 06:17:25;;;;;;;0.70;0.70;;;9.20;99.90;;;;;;5028093;28;20116;-75
2021/12/04 06:22:40;;;;;;;1.10;1.00;;;9.10;99.90;;;;;;5029141;28;20092;-75
2021/12/04 06:25:08;;;;;;;0.85;0.65;;;9.10;99.90;;;;;;5027489;28;20064;-75
2021/12/04 06:27:34;;;;;;;0.80;0.77;;;9.10;99.90;;;;;;5027534;28;20026;-75
2021/12/04 06:30:01;;;;;;;0.90;0.73;;;9.10;99.90;;;;;;5027964;28;20093;-75
2021/12/04 06:32:27;;;;;;;1.85;1.02;;;9.10;99.90;;;;;;5027469;28;20029;-75
2021/12/04 06:34:53;;;;;;;1.50;0.90;;;9.10;99.90;;;;;;5029443;28;20556;-75
2021/12/04 06:37:18;;;;;;;0.88;0.60;;;9.10;99.90;;;;;;5030017;28;20457;-74
2021/12/04 06:39:44;;;;;;;0.80;0.80;;;9.10;99.90;;;;;;5030760;28;20494;-75
2021/12/04 06:42:10;;;;;;;0.93;0.80;;;9.10;99.90;;;;;;5030811;28;20466;-75
2021/12/04 06:44:36;;;;;;;1.15;0.60;;;9.00;99.90;;;;;;5030801;28;20042;-75
2021/12/04 06:47:03;;;;;;;2.38;0.88;;;9.00;99.90;;;;;;5031996;28;20072;-75
2021/12/04 06:49:33;;;;;;;1.08;0.93;;;9.00;99.90;;;;;;5032028;28;20036;-75
2021/12/04 06:52:02;;;;;;;1.30;1.20;;;9.10;99.90;;;;;;5031722;28;20022;-75
2021/12/04 06:54:34;;;;;;;1.40;1.05;;;9.00;99.90;;;;;;5031358;28;20032;-75
2021/12/04 06:57:00;;;;;;;1.58;1.02;;;9.00;99.90;;;;;;5031781;28;20028;-75
2021/12/04 06:59:29;;;;;;;1.00;0.90;;;9.00;99.90;;;;;;5029629;28;20021;-75
2021/12/04 07:01:55;;;;;;;1.23;0.90;;;9.10;99.90;;;;;;5032648;28;20010;-75
2021/12/04 07:04:21;;;;;;;0.70;0.70;;;9.20;99.90;;;;;;5030176;28;20025;-75
2021/12/04 07:06:50;;;;;;;0.80;0.70;;;9.20;99.90;;;;;;5030233;28;20120;-75
2021/12/04 07:09:15;;;;;;;0.60;0.60;;;9.30;99.90;;;;;;5030722;28;20017;-75
2021/12/04 07:11:41;;;;;;;0.65;0.63;;;9.30;99.90;;;;;;5012861;28;20044;-75
2021/12/04 07:14:07;;;;;;;0.70;0.70;;;9.40;99.90;;;;;;5030869;28;20029;-75
2021/12/04 07:16:32;;;;;;;1.52;1.27;;;9.50;99.90;;;;;;5014418;28;20518;-75
2021/12/04 07:18:58;;;;;;;1.40;1.30;;;9.50;99.90;;;;;;5012513;28;20108;-75
2021/12/04 07:21:24;;;;;;;1.17;1.08;;;9.60;99.90;;;;;;5030267;28;20570;-75
2021/12/04 07:23:50;;;;;;;1.38;1.20;;;9.70;99.90;;;;;;5012830;28;20029;-75
2021/12/04 07:26:17;;;;;;;0.75;0.75;;;9.80;99.90;;;;;;5030294;28;20037;-75
2021/12/04 07:28:43;;;;;;;0.80;0.75;;;10.10;99.90;;;;;;5031795;28;20179;-75
2021/12/04 07:31:08;;;;;;;1.02;0.93;;;10.50;99.90;;;;;;5029795;28;20604;-75
2021/12/04 07:33:34;;;;;;;2.97;2.03;;;10.80;99.90;;;;;;5030000;28;20033;-75
2021/12/04 07:36:00;;;;;;;4.35;2.00;;;10.90;99.90;;;;;;5030277;28;20148;-75
2021/12/04 07:38:26;;;;;;;2.67;1.58;;;10.80;99.90;;;;;;5012420;28;20056;-75
2021/12/04 07:40:52;;;;;;;1.83;1.10;;;10.80;99.90;;;;;;5032077;28;20045;-75
2021/12/04 07:43:18;;;;;;;0.68;0.68;;;10.80;99.90;;;;;;5029677;28;20108;-76
2021/12/04 07:45:44;;;;;;;0.68;0.68;;;10.90;99.90;;;;;;5012112;28;20608;-75
2021/12/04 07:48:10;;;;;;;0.50;0.50;;;10.90;99.90;;;;;;5028437;28;20112;-75
2021/12/04 07:50:38;;;;;;;1.13;0.77;;;11.00;99.90;;;;;;5030188;28;20069;-75
2021/12/04 07:53:04;;;;;;;1.90;1.20;;;11.10;99.90;;;;;;5030104;28;20039;-75
2021/12/04 07:55:30;;;;;;;3.47;2.05;;;11.10;99.90;;;;;;5031011;28;20018;-75
2021/12/04 07:57:56;;;;;;;9.18;4.13;;;11.10;99.90;;;;;;5029651;28;20026;-75
2021/12/04 08:00:23;;;;;;;4.40;2.72;;;11.20;99.90;;;;;;5029846;28;20021;-75
2021/12/04 08:02:49;;;;;;;3.53;1.85;;;11.20;99.90;;;;;;5011470;28;20033;-75
2021/12/04 08:05:16;;;;;;;1.40;0.80;;;11.20;99.90;;;;;;5029632;28;20100;-75
2021/12/04 08:07:42;;;;;;;1.02;0.70;;;11.20;99.90;;;;;;5031284;28;20048;-75
2021/12/04 08:10:12;;;;;;;1.95;0.60;;;11.30;99.90;;;;;;5029046;28;20025;-75
2021/12/04 08:12:37;;;;;;;1.58;0.52;;;11.40;99.90;;;;;;5029344;28;20079;-75
2021/12/04 08:15:05;;;;;;;1.13;0.40;;;11.40;99.90;;;;;;5029026;28;20025;-75
2021/12/04 08:17:30;;;;;;;0.55;0.55;;;11.40;99.90;;;;;;5011432;28;20017;-75
2021/12/04 08:19:56;;;;;;;1.58;0.60;;;11.40;99.90;;;;;;5028867;28;20576;-75
2021/12/04 08:22:22;;;;;;;0.40;0.40;;;11.40;99.90;;;;;;5029611;28;20479;-74
2021/12/04 08:24:48;;;;;;;3.10;0.52;;;11.20;99.90;;;;;;5011390;28;20419;-75
2021/12/04 08:27:16;;;;;;;0.98;0.50;;;11.10;99.90;;;;;;5028417;28;20078;-75
2021/12/04 08:29:42;;;;;;;0.47;0.47;;;10.90;99.90;;;;;;5028850;28;20080;-75
2021/12/04 08:32:08;;;;;;;1.20;0.60;;;10.80;99.90;;;;;;5011549;28;20116;-75
2021/12/04 08:34:34;;;;;;;0.50;0.50;;;10.70;99.90;;;;;;5012145;28;20025;-75
2021/12/04 08:37:01;;;;;;;2.00;0.82;;;10.60;99.90;;;;;;5028692;28;20114;-75
2021/12/04 08:39:26;;;;;;;0.85;0.63;;;10.50;99.90;;;;;;5028454;28;20060;-75
2021/12/04 08:41:52;;;;;;;1.23;0.77;;;10.50;99.90;;;;;;5028422;28;20057;-75
2021/12/04 08:44:19;;;;;;;2.08;1.10;;;10.40;99.90;;;;;;5029393;28;20057;-75
2021/12/04 08:46:45;;;;;;;1.30;1.08;;;10.40;99.90;;;;;;5029965;28;20032;-75
2021/12/04 08:49:11;;;;;;;1.10;0.98;;;10.40;99.90;;;;;;5028732;28;20021;-75
2021/12/04 08:51:37;;;;;;;3.78;1.60;;;10.40;99.90;;;;;;5027858;28;20067;-75
2021/12/04 08:54:04;;;;;;;3.60;1.70;;;10.40;99.90;;;;;;5027851;28;20084;-76
2021/12/04 08:56:30;;;;;;;3.33;1.88;;;10.40;99.90;;;;;;5021929;28;20106;-75
2021/12/04 08:58:56;;;;;;;1.98;1.25;;;10.40;99.90;;;;;;5029230;28;20021;-76
2021/12/04 09:01:31;;;;;;;2.25;0.80;;;10.40;99.90;;;;;;5027872;28;20036;-75
2021/12/04 09:04:05;;;;;;;1.55;1.00;;;10.30;99.90;;;;;;5010462;28;20075;-75
2021/12/04 09:06:32;;;;;;;4.22;1.20;;;10.30;99.90;;;;;;5028538;28;20101;-75
2021/12/04 09:08:58;;;;;;;2.75;1.35;;;10.30;99.90;;;;;;5010844;28;20426;-75
2021/12/04 09:11:31;;;;;;;2.75;1.17;;;10.30;99.90;;;;;;5028143;28;20521;-76
2021/12/04 09:13:57;;;;;;;2.65;1.52;;;10.30;99.90;;;;;;5029870;28;20025;-75
2021/12/04 09:16:25;;;;;;;5.72;1.55;;;10.30;99.90;;;;;;5010304;28;20479;-77
2021/12/04 09:18:51;;;;;;;2.40;1.40;;;10.30;99.90;;;;;;5027917;28;20041;-75
2021/12/04 09:21:18;;;;;;;1.38;1.13;;;10.30;99.90;;;;;;5027921;28;20113;-75
2021/12/04 09:23:50;;;;;;;1.55;1.17;;;10.30;99.90;;;;;;5028132;28;20025;-75
2021/12/04 09:26:31;;;;;;;3.67;2.00;;;10.20;99.90;;;;;;5026702;28;20013;-76
2021/12/04 09:29:10;;;;;;;4.60;2.55;;;10.20;99.90;;;;;;5028921;28;20076;-75
2021/12/04 09:34:18;;;;;;;3.67;1.30;;;10.30;99.90;;;;;;5026313;28;20026;-75
2021/12/04 10:01:45;;;;;;;4.43;2.58;;;10.30;99.90;;;;;;5027789;28;20067;-79
2021/12/04 10:04:47;;;;;;;4.43;1.70;;;10.20;99.90;;;;;;5026869;28;20076;-78
2021/12/04 10:32:35;;;;;;;2.45;1.13;;;10.30;99.90;;;;;;5031175;28;20121;-78
2021/12/04 10:35:10;;;;;;;1.23;1.10;;;10.40;99.90;;;;;;5031045;28;20561;-78
2021/12/04 10:37:50;;;;;;;2.03;1.50;;;10.40;99.90;;;;;;5012535;28;20510;-78
2021/12/04 10:40:16;;;;;;;2.33;1.52;;;10.40;99.90;;;;;;5030641;28;20024;-78
2021/12/04 10:42:51;;;;;;;2.05;1.60;;;10.40;99.90;;;;;;5013084;28;20576;-78
2021/12/04 10:45:18;;;;;;;2.90;1.40;;;10.50;99.90;;;;;;5029910;28;20045;-78
2021/12/04 10:47:53;;;;;;;2.92;1.45;;;10.50;99.90;;;;;;5030749;28;20558;-79
2021/12/04 10:52:57;;;;;;;3.78;1.63;;;10.60;99.90;;;;;;5032082;28;20091;-79
2021/12/04 11:20:06;;;;;;;2.63;1.30;;;11.00;99.90;;;;;;5031170;28;20041;-79
2021/12/04 11:44:10;;;;;;;0.75;0.75;;;11.40;99.90;;;;;;5006789;28;20593;-76
2021/12/04 11:46:43;;;;;;;2.13;1.10;;;11.40;99.90;;;;;;5009197;28;20037;-77
2021/12/04 11:49:13;;;;;;;1.33;1.10;;;11.40;99.90;;;;;;5007335;28;20038;-77
2021/12/04 11:52:00;;;;;;;0.80;0.80;;;11.30;99.90;;;;;;5007007;28;20041;-75
2021/12/04 11:54:29;;;;;;;0.88;0.70;;;11.30;99.90;;;;;;4991695;28;20541;-76
2021/12/04 11:57:05;;;;;;;1.17;1.00;;;11.20;99.90;;;;;;5007251;28;20026;-76
2021/12/04 11:59:33;;;;;;;1.23;0.77;;;11.20;99.90;;;;;;5006794;28;20592;-76
2021/12/04 12:02:00;;;;;;;2.20;1.40;;;11.20;99.90;;;;;;5005300;28;20026;-76
2021/12/04 12:04:54;;;;;;;1.55;1.15;;;11.20;99.90;;;;;;5016462;28;20042;-75
2021/12/04 12:07:26;;;;;;;1.42;1.20;;;11.30;99.90;;;;;;5007820;28;20037;-75
2021/12/04 12:10:05;;;;;;;1.05;0.93;;;11.50;99.90;;;;;;5030535;28;20112;-76
2021/12/04 12:12:36;;;;;;;1.85;1.15;;;11.40;99.90;;;;;;5028424;28;20056;-76
2021/12/04 12:15:23;;;;;;;1.40;1.30;;;11.40;99.90;;;;;;5027869;28;20053;-75
2021/12/04 12:17:50;;;;;;;4.75;2.10;;;11.40;99.90;;;;;;5011849;28;20520;-76
2021/12/04 12:20:30;;;;;;;3.03;1.20;;;11.40;99.90;;;;;;5028987;28;20033;-76
2021/12/04 12:23:04;;;;;;;2.72;1.05;;;11.40;99.90;;;;;;5028881;28;20116;-77
2021/12/04 12:34:11;;;;;;;3.90;0.90;;;10.90;99.90;;;;;;5027632;28;20443;-75
2021/12/04 12:36:37;;;;;;;1.48;0.80;;;11.00;99.90;;;;;;5028652;28;20025;-76
2021/12/04 12:39:05;;;;;;;1.60;1.10;;;11.20;99.90;;;;;;5028842;28;20030;-76
2021/12/04 12:41:42;;;;;;;3.88;1.25;;;11.40;99.90;;;;;;5028846;28;20029;-76
2021/12/04 12:44:26;;;;;;;2.75;1.42;;;11.50;99.90;;;;;;5010893;28;20056;-75
2021/12/04 12:46:54;;;;;;;2.75;1.40;;;11.60;99.90;;;;;;5030682;28;20030;-75
2021/12/04 12:49:36;;;;;;;2.05;1.60;;;11.90;99.90;;;;;;5028635;28;20074;-75
2021/12/04 12:52:05;;;;;;;4.88;1.40;;;12.00;99.90;;;;;;5025174;28;20033;-75
2021/12/04 12:54:37;;;;;;;4.53;1.50;;;12.10;99.90;;;;;;5028005;28;20059;-75
2021/12/04 12:57:10;;;;;;;4.13;1.20;;;12.10;99.90;;;;;;5010996;28;20055;-75
2021/12/04 12:59:55;;;;;;;7.38;1.65;;;12.10;99.90;;;;;;5029484;28;20021;-75
2021/12/04 13:13:54;;;;;;;14.55;3.13;;;12.20;99.90;;;;;;5029698;28;20040;-75
2021/12/04 13:16:29;;;;;;;7.18;2.40;;;12.20;99.90;;;;;;5010575;28;20049;-75
2021/12/04 13:19:00;;;;;;;8.27;2.22;;;12.30;99.90;;;;;;5028548;28;20057;-75
2021/12/04 13:21:27;;;;;;;13.07;3.05;;;12.30;99.90;;;;;;5026943;28;20044;-75
2021/12/04 13:23:55;;;;;;;6.03;2.20;;;12.30;99.90;;;;;;5010190;28;20072;-75
2021/12/04 13:26:30;;;;;;;9.52;2.10;;;12.20;99.90;;;;;;5010063;28;20487;-75
2021/12/04 13:28:59;;;;;;;8.13;2.63;;;12.10;99.90;;;;;;5030058;28;20048;-75
2021/12/04 13:31:26;;;;;;;9.35;2.47;;;12.10;99.90;;;;;;5009785;28;20030;-75
2021/12/04 13:33:54;;;;;;;9.40;3.35;;;12.20;99.90;;;;;;5027691;28;20091;-75
2021/12/04 13:36:32;;;;;;;10.68;2.65;;;12.30;99.90;;;;;;5009925;28;20025;-75
2021/12/04 13:39:03;;;;;;;11.45;3.05;;;12.30;99.90;;;;;;5016065;28;20053;-75
2021/12/04 13:41:30;;;;;;;6.90;2.42;;;12.40;99.90;;;;;;5009897;28;20033;-75
2021/12/04 13:43:58;;;;;;;13.02;3.55;;;12.40;99.90;;;;;;5029298;28;20052;-75
2021/12/04 13:46:24;;;;;;;15.80;3.25;;;12.50;99.90;;;;;;5031293;28;20076;-75
2021/12/04 13:48:51;;;;;;;11.50;2.63;;;12.30;99.90;;;;;;5014005;28;20029;-75
2021/12/04 13:51:17;;;;;;;10.60;2.75;;;12.10;99.90;;;;;;5031715;28;20088;-74
2021/12/04 13:53:46;;;;;;;19.77;3.47;;;12.00;99.90;;;;;;5011568;28;20029;-73
2021/12/04 13:56:17;;;;;;;23.23;4.50;;;12.00;99.90;;;;;;5010998;28;20080;-74
2021/12/04 13:58:49;;;;;;;14.00;3.80;;;12.00;99.90;;;;;;5008736;28;20080;-74
2021/12/04 14:01:15;;;;;;;17.48;3.80;;;12.00;99.90;;;;;;5009368;28;20052;-74
2021/12/04 14:03:42;;;;;;;14.63;4.72;;;11.90;99.90;;;;;;5011570;28;20079;-74
2021/12/04 14:06:13;;;;;;;14.45;3.70;;;11.80;99.90;;;;;;5011870;28;20056;-74
2021/12/04 14:08:39;;;;;;;17.13;4.22;;;11.80;99.90;;;;;;5029128;28;20021;-74
2021/12/04 14:11:05;;;;;;;18.45;3.70;;;11.80;99.90;;;;;;5012542;28;20103;-74
2021/12/04 14:13:31;;;;;;;11.57;2.83;;;11.80;99.90;;;;;;5026600;28;20502;-74
2021/12/04 14:15:57;;;;;;;13.95;2.50;;;11.40;99.90;;;;;;5028537;28;20447;-74
2021/12/04 14:18:24;;;;;;;12.85;3.05;;;10.90;99.90;;;;;;5010710;28;20025;-74
2021/12/04 14:21:00;;;;;;;19.70;3.60;;;10.60;99.90;;;;;;5028126;28;20065;-74
2021/12/04 14:23:27;;;;;;;8.30;3.05;;;10.30;99.90;;;;;;5028136;28;20029;-74
2021/12/04 14:25:56;;;;;;;6.13;1.85;;;10.30;99.90;;;;;;5030272;28;20112;-74
2021/12/04 14:28:25;;;;;;;11.57;2.80;;;10.30;99.90;;;;;;5011204;28;20029;-75
2021/12/04 14:30:51;;;;;;;9.68;2.63;;;10.20;99.90;;;;;;5029256;28;20030;-74
2021/12/04 14:33:23;;;;;;;9.75;2.58;;;10.30;99.90;;;;;;5027593;28;20067;-74
2021/12/04 14:35:51;;;;;;;15.98;3.40;;;10.30;99.90;;;;;;5028136;28;20022;-74
2021/12/04 14:38:24;;;;;;;12.00;3.40;;;10.30;99.90;;;;;;5027286;28;20033;-74
2021/12/04 14:40:57;;;;;;;10.80;2.75;;;10.40;99.90;;;;;;5011991;28;20056;-76
2021/12/04 14:43:25;;;;;;;19.55;3.55;;;10.40;99.90;;;;;;5027133;28;20109;-74
2021/12/04 14:45:56;;;;;;;12.65;2.90;;;10.50;99.90;;;;;;5027384;28;20499;-74
2021/12/04 14:48:25;;;;;;;13.02;2.95;;;10.60;99.90;;;;;;5010853;28;20032;-75
2021/12/04 14:50:58;;;;;;;14.63;2.88;;;10.50;99.90;;;;;;5010808;28;20033;-75
2021/12/04 14:53:24;;;;;;;8.48;2.10;;;10.30;99.90;;;;;;5027743;28;20033;-74
2021/12/04 14:55:52;;;;;;;12.02;2.90;;;10.20;99.90;;;;;;5029336;28;20033;-75
2021/12/04 14:58:22;;;;;;;11.70;2.97;;;10.20;99.90;;;;;;5027004;28;20040;-74
2021/12/04 15:00:54;;;;;;;13.18;2.67;;;10.30;99.90;;;;;;5022512;28;20021;-74
2021/12/04 15:03:31;;;;;;;13.07;3.58;;;10.10;99.90;;;;;;5026221;28;20340;-74
2021/12/04 15:06:00;;;;;;;13.40;3.10;;;10.00;99.90;;;;;;5009879;28;20083;-74
2021/12/04 15:08:30;;;;;;;9.80;2.58;;;10.00;99.90;;;;;;5027465;28;20033;-74
2021/12/04 15:11:21;;;;;;;13.82;2.67;;;10.00;99.90;;;;;;5010668;28;20036;-74
2021/12/04 15:13:58;;;;;;;8.98;1.75;;;10.00;99.90;;;;;;5027182;28;20127;-74
2021/12/04 15:16:36;;;;;;;9.27;2.42;;;10.00;99.90;;;;;;5008871;28;20082;-74
2021/12/04 15:19:13;;;;;;;13.88;2.55;;;10.00;99.90;;;;;;5009770;28;20033;-74
2021/12/04 15:21:46;;;;;;;9.75;2.15;;;9.90;99.90;;;;;;5026637;28;20123;-74
2021/12/04 15:24:20;;;;;;;12.68;2.05;;;9.90;99.90;;;;;;5027376;28;20082;-73
2021/12/04 15:26:48;;;;;;;13.43;3.67;;;9.90;99.90;;;;;;5008762;28;20025;-74
2021/12/04 15:29:20;;;;;;;6.40;1.52;;;9.80;99.90;;;;;;5025634;28;20464;-73
2021/12/04 15:31:48;;;;;;;8.48;1.75;;;9.70;99.90;;;;;;5009491;28;20083;-74
2021/12/04 15:34:14;;;;;;;7.28;2.00;;;9.60;99.90;;;;;;5025624;28;20116;-73
2021/12/04 15:36:45;;;;;;;6.93;1.60;;;9.60;99.90;;;;;;5004681;28;20112;-74
2021/12/04 15:39:19;;;;;;;8.38;2.08;;;9.60;99.90;;;;;;5016490;28;20021;-74
2021/12/04 15:55:08;;;;;;;6.88;1.90;;;9.50;99.90;;;;;;5024800;28;20567;-74
2021/12/04 15:57:35;;;;;;;8.10;1.95;;;9.50;99.90;;;;;;5005682;28;20051;-74
2021/12/04 16:00:10;;;;;;;8.38;2.03;;;9.40;99.90;;;;;;5028474;28;20230;-74
2021/12/04 16:02:40;;;;;;;8.18;1.92;;;9.40;99.90;;;;;;5006038;28;20028;-74
2021/12/04 16:05:15;;;;;;;7.40;2.58;;;9.40;99.90;;;;;;5035624;28;20086;-73
2021/12/04 16:07:41;;;;;;;8.70;2.13;;;9.40;99.90;;;;;;5038867;28;20065;-74
2021/12/04 16:10:19;;;;;;;8.70;2.50;;;9.40;99.90;;;;;;5028964;28;20463;-74
2021/12/04 16:12:48;;;;;;;14.02;5.18;;;9.30;99.90;;;;;;5027822;28;20026;-74
2021/12/04 16:15:16;;;;;;;10.10;4.28;;;9.30;99.90;;;;;;5009514;28;20026;-74